sensor_id;sensor_type;location;lat;lon;timestamp;temperature;humidity
65044;DHT22;51617;48.158;16.464;2023-03-12T00:02:23;4.30;71.70
65044;DHT22;51617;48.158;16.464;2023-03-12T00:04:49;4.30;71.50
65044;DHT22;51617;48.158;16.464;2023-03-12T00:07:15;4.30;71.40
65044;DHT22;51617;48.158;16.464;2023-03-12T00:09:40;4.30;71.60
65044;DHT22;51617;48.158;16.464;2023-03-12T00:12:07;4.30;71.60
65044;DHT22;51617;48.158;16.464;2023-03-12T00:14:33;4.30;71.50
65044;DHT22;51617;48.158;16.464;2023-03-12T00:16:58;4.30;71.70
65044;DHT22;51617;48.158;16.464;2023-03-12T00:19:24;4.30;71.90
65044;DHT22;51617;48.158;16.464;2023-03-12T00:21:50;4.30;71.90
65044;DHT22;51617;48.158;16.464;2023-03-12T00:24:15;4.20;71.90
65044;DHT22;51617;48.158;16.464;2023-03-12T00:26:42;4.20;72.00
65044;DHT22;51617;48.158;16.464;2023-03-12T00:29:08;4.20;72.00
65044;DHT22;51617;48.158;16.464;2023-03-12T00:31:34;4.20;71.90
65044;DHT22;51617;48.158;16.464;2023-03-12T00:34:01;4.20;71.70
65044;DHT22;51617;48.158;16.464;2023-03-12T00:36:30;4.20;71.90
65044;DHT22;51617;48.158;16.464;2023-03-12T00:38:57;4.20;70.60
65044;DHT22;51617;48.158;16.464;2023-03-12T00:41:24;4.20;70.90
65044;DHT22;51617;48.158;16.464;2023-03-12T00:43:50;4.20;70.80
65044;DHT22;51617;48.158;16.464;2023-03-12T00:46:17;4.10;70.80
65044;DHT22;51617;48.158;16.464;2023-03-12T00:48:43;4.10;70.90
65044;DHT22;51617;48.158;16.464;2023-03-12T00:51:09;4.20;70.80
65044;DHT22;51617;48.158;16.464;2023-03-12T00:53:35;4.10;70.70
65044;DHT22;51617;48.158;16.464;2023-03-12T00:56:01;4.10;70.80
65044;DHT22;51617;48.158;16.464;2023-03-12T00:58:27;4.20;70.90
65044;DHT22;51617;48.158;16.464;2023-03-12T01:00:53;4.10;70.90
65044;DHT22;51617;48.158;16.464;2023-03-12T01:03:18;4.10;71.00
65044;DHT22;51617;48.158;16.464;2023-03-12T01:05:44;4.10;71.20
65044;DHT22;51617;48.158;16.464;2023-03-12T01:08:10;4.10;71.40
65044;DHT22;51617;48.158;16.464;2023-03-12T01:10:39;4.10;71.50
65044;DHT22;51617;48.158;16.464;2023-03-12T01:13:05;4.10;71.60
65044;DHT22;51617;48.158;16.464;2023-03-12T01:15:31;4.10;71.60
65044;DHT22;51617;48.158;16.464;2023-03-12T01:17:56;4.10;71.80
65044;DHT22;51617;48.158;16.464;2023-03-12T01:20:22;4.10;71.90
65044;DHT22;51617;48.158;16.464;2023-03-12T01:22:49;4.10;71.90
65044;DHT22;51617;48.158;16.464;2023-03-12T01:25:15;4.10;72.00
65044;DHT22;51617;48.158;16.464;2023-03-12T01:27:40;4.10;72.00
65044;DHT22;51617;48.158;16.464;2023-03-12T01:30:07;4.00;72.10
65044;DHT22;51617;48.158;16.464;2023-03-12T01:32:33;4.00;72.60
65044;DHT22;51617;48.158;16.464;2023-03-12T01:34:58;4.00;72.90
65044;DHT22;51617;48.158;16.464;2023-03-12T01:37:25;4.00;73.00
65044;DHT22;51617;48.158;16.464;2023-03-12T01:39:51;3.90;73.40
65044;DHT22;51617;48.158;16.464;2023-03-12T01:42:17;3.90;74.00
65044;DHT22;51617;48.158;16.464;2023-03-12T01:44:58;3.90;74.30
65044;DHT22;51617;48.158;16.464;2023-03-12T01:47:24;3.90;74.60
65044;DHT22;51617;48.158;16.464;2023-03-12T01:49:52;3.90;74.80
65044;DHT22;51617;48.158;16.464;2023-03-12T01:52:34;3.80;74.80
65044;DHT22;51617;48.158;16.464;2023-03-12T01:57:42;3.80;75.30
65044;DHT22;51617;48.158;16.464;2023-03-12T02:00:15;3.80;75.50
65044;DHT22;51617;48.158;16.464;2023-03-12T02:02:43;3.80;75.30
65044;DHT22;51617;48.158;16.464;2023-03-12T02:05:18;3.80;75.30
65044;DHT22;51617;48.158;16.464;2023-03-12T02:07:47;3.80;75.40
65044;DHT22;51617;48.158;16.464;2023-03-12T02:10:14;3.80;75.20
65044;DHT22;51617;48.158;16.464;2023-03-12T02:12:40;3.80;75.20
65044;DHT22;51617;48.158;16.464;2023-03-12T02:15:06;3.80;75.40
65044;DHT22;51617;48.158;16.464;2023-03-12T02:17:32;3.80;75.30
65044;DHT22;51617;48.158;16.464;2023-03-12T02:20:33;3.80;75.30
65044;DHT22;51617;48.158;16.464;2023-03-12T02:25:49;3.70;75.40
65044;DHT22;51617;48.158;16.464;2023-03-12T02:28:18;3.70;75.50
65044;DHT22;51617;48.158;16.464;2023-03-12T02:30:47;3.70;75.50
65044;DHT22;51617;48.158;16.464;2023-03-12T02:33:14;3.60;75.60
65044;DHT22;51617;48.158;16.464;2023-03-12T02:35:41;3.70;75.70
65044;DHT22;51617;48.158;16.464;2023-03-12T02:38:50;3.70;75.70
65044;DHT22;51617;48.158;16.464;2023-03-12T02:41:39;3.60;75.80
65044;DHT22;51617;48.158;16.464;2023-03-12T02:44:32;3.60;75.90
65044;DHT22;51617;48.158;16.464;2023-03-12T02:47:00;3.60;76.10
65044;DHT22;51617;48.158;16.464;2023-03-12T02:49:31;3.50;75.90
65044;DHT22;51617;48.158;16.464;2023-03-12T02:51:57;3.50;76.20
65044;DHT22;51617;48.158;16.464;2023-03-12T02:54:23;3.50;76.30
65044;DHT22;51617;48.158;16.464;2023-03-12T02:56:50;3.50;76.50
65044;DHT22;51617;48.158;16.464;2023-03-12T02:59:17;3.50;76.70
65044;DHT22;51617;48.158;16.464;2023-03-12T03:01:43;3.40;77.00
65044;DHT22;51617;48.158;16.464;2023-03-12T03:04:10;3.40;77.00
65044;DHT22;51617;48.158;16.464;2023-03-12T03:06:40;3.40;77.10
65044;DHT22;51617;48.158;16.464;2023-03-12T03:09:07;3.40;77.20
65044;DHT22;51617;48.158;16.464;2023-03-12T03:11:33;3.40;77.20
65044;DHT22;51617;48.158;16.464;2023-03-12T03:13:58;3.40;77.20
65044;DHT22;51617;48.158;16.464;2023-03-12T03:16:24;3.40;77.30
65044;DHT22;51617;48.158;16.464;2023-03-12T03:18:50;3.40;77.20
65044;DHT22;51617;48.158;16.464;2023-03-12T03:21:16;3.40;77.30
65044;DHT22;51617;48.158;16.464;2023-03-12T03:23:43;3.30;77.40
65044;DHT22;51617;48.158;16.464;2023-03-12T03:26:09;3.30;77.50
65044;DHT22;51617;48.158;16.464;2023-03-12T03:28:35;3.30;77.40
65044;DHT22;51617;48.158;16.464;2023-03-12T03:31:01;3.30;77.40
65044;DHT22;51617;48.158;16.464;2023-03-12T03:33:28;3.30;77.50
65044;DHT22;51617;48.158;16.464;2023-03-12T03:35:55;3.30;77.50
65044;DHT22;51617;48.158;16.464;2023-03-12T03:38:22;3.30;77.40
65044;DHT22;51617;48.158;16.464;2023-03-12T03:40:47;3.30;77.30
65044;DHT22;51617;48.158;16.464;2023-03-12T03:43:14;3.30;77.40
65044;DHT22;51617;48.158;16.464;2023-03-12T03:45:40;3.30;77.60
65044;DHT22;51617;48.158;16.464;2023-03-12T03:48:05;3.30;77.60
65044;DHT22;51617;48.158;16.464;2023-03-12T03:50:31;3.30;77.60
65044;DHT22;51617;48.158;16.464;2023-03-12T03:52:57;3.30;77.60
65044;DHT22;51617;48.158;16.464;2023-03-12T03:55:23;3.30;77.60
65044;DHT22;51617;48.158;16.464;2023-03-12T03:57:48;3.30;77.60
65044;DHT22;51617;48.158;16.464;2023-03-12T04:00:14;3.30;77.60
65044;DHT22;51617;48.158;16.464;2023-03-12T04:02:42;3.20;77.60
65044;DHT22;51617;48.158;16.464;2023-03-12T04:05:09;3.20;77.60
65044;DHT22;51617;48.158;16.464;2023-03-12T04:07:35;3.20;77.60
65044;DHT22;51617;48.158;16.464;2023-03-12T04:10:02;3.20;77.80
65044;DHT22;51617;48.158;16.464;2023-03-12T04:12:28;3.20;78.00
65044;DHT22;51617;48.158;16.464;2023-03-12T04:14:54;3.20;78.00
65044;DHT22;51617;48.158;16.464;2023-03-12T04:17:20;3.20;78.10
65044;DHT22;51617;48.158;16.464;2023-03-12T04:19:46;3.20;78.30
65044;DHT22;51617;48.158;16.464;2023-03-12T04:22:12;3.20;78.40
65044;DHT22;51617;48.158;16.464;2023-03-12T04:24:37;3.20;78.60
65044;DHT22;51617;48.158;16.464;2023-03-12T04:27:03;3.10;78.60
65044;DHT22;51617;48.158;16.464;2023-03-12T04:29:29;3.20;78.70
65044;DHT22;51617;48.158;16.464;2023-03-12T04:31:54;3.10;78.60
65044;DHT22;51617;48.158;16.464;2023-03-12T04:34:20;3.10;78.90
65044;DHT22;51617;48.158;16.464;2023-03-12T04:36:46;3.10;79.10
65044;DHT22;51617;48.158;16.464;2023-03-12T04:39:15;3.10;79.10
65044;DHT22;51617;48.158;16.464;2023-03-12T04:41:41;3.10;79.20
65044;DHT22;51617;48.158;16.464;2023-03-12T04:44:07;3.10;79.40
65044;DHT22;51617;48.158;16.464;2023-03-12T04:46:32;3.00;79.30
65044;DHT22;51617;48.158;16.464;2023-03-12T04:48:58;3.00;79.40
65044;DHT22;51617;48.158;16.464;2023-03-12T04:51:27;3.00;79.30
65044;DHT22;51617;48.158;16.464;2023-03-12T04:53:54;2.90;79.90
65044;DHT22;51617;48.158;16.464;2023-03-12T04:56:20;3.00;79.40
65044;DHT22;51617;48.158;16.464;2023-03-12T04:58:46;3.00;79.30
65044;DHT22;51617;48.158;16.464;2023-03-12T05:01:25;3.00;79.30
65044;DHT22;51617;48.158;16.464;2023-03-12T05:03:51;3.00;79.10
65044;DHT22;51617;48.158;16.464;2023-03-12T05:06:17;3.00;79.10
65044;DHT22;51617;48.158;16.464;2023-03-12T05:08:44;3.00;79.00
65044;DHT22;51617;48.158;16.464;2023-03-12T05:11:10;3.00;79.00
65044;DHT22;51617;48.158;16.464;2023-03-12T05:13:35;3.00;79.10
65044;DHT22;51617;48.158;16.464;2023-03-12T05:16:01;3.00;79.10
65044;DHT22;51617;48.158;16.464;2023-03-12T05:18:27;3.00;79.10
65044;DHT22;51617;48.158;16.464;2023-03-12T05:21:09;3.00;79.00
65044;DHT22;51617;48.158;16.464;2023-03-12T05:23:37;3.00;78.60
65044;DHT22;51617;48.158;16.464;2023-03-12T05:26:04;2.80;78.30
65044;DHT22;51617;48.158;16.464;2023-03-12T05:28:31;2.60;78.50
65044;DHT22;51617;48.158;16.464;2023-03-12T05:30:58;2.40;79.20
65044;DHT22;51617;48.158;16.464;2023-03-12T05:33:26;2.20;79.60
65044;DHT22;51617;48.158;16.464;2023-03-12T05:35:52;2.10;80.30
65044;DHT22;51617;48.158;16.464;2023-03-12T05:38:18;2.10;80.80
65044;DHT22;51617;48.158;16.464;2023-03-12T05:40:50;2.00;81.10
65044;DHT22;51617;48.158;16.464;2023-03-12T05:43:17;1.90;81.30
65044;DHT22;51617;48.158;16.464;2023-03-12T05:45:43;1.80;82.00
65044;DHT22;51617;48.158;16.464;2023-03-12T05:48:09;1.90;82.40
65044;DHT22;51617;48.158;16.464;2023-03-12T05:50:34;2.00;82.30
65044;DHT22;51617;48.158;16.464;2023-03-12T05:53:00;2.10;82.30
65044;DHT22;51617;48.158;16.464;2023-03-12T05:55:26;2.20;82.00
65044;DHT22;51617;48.158;16.464;2023-03-12T05:57:51;2.10;82.00
65044;DHT22;51617;48.158;16.464;2023-03-12T06:00:18;2.10;82.30
65044;DHT22;51617;48.158;16.464;2023-03-12T06:02:43;2.10;82.30
65044;DHT22;51617;48.158;16.464;2023-03-12T06:05:10;2.10;82.50
65044;DHT22;51617;48.158;16.464;2023-03-12T06:07:36;2.20;82.40
65044;DHT22;51617;48.158;16.464;2023-03-12T06:10:02;2.40;82.10
65044;DHT22;51617;48.158;16.464;2023-03-12T06:12:27;2.40;81.70
65044;DHT22;51617;48.158;16.464;2023-03-12T06:14:53;2.60;81.60
65044;DHT22;51617;48.158;16.464;2023-03-12T06:17:19;2.70;81.30
65044;DHT22;51617;48.158;16.464;2023-03-12T06:19:44;2.80;80.60
65044;DHT22;51617;48.158;16.464;2023-03-12T06:22:10;2.70;80.60
65044;DHT22;51617;48.158;16.464;2023-03-12T06:24:36;2.80;80.70
65044;DHT22;51617;48.158;16.464;2023-03-12T06:27:01;2.80;80.60
65044;DHT22;51617;48.158;16.464;2023-03-12T06:29:27;2.80;80.80
65044;DHT22;51617;48.158;16.464;2023-03-12T06:31:53;2.90;80.70
65044;DHT22;51617;48.158;16.464;2023-03-12T06:34:20;3.00;80.30
65044;DHT22;51617;48.158;16.464;2023-03-12T06:36:45;3.10;80.10
65044;DHT22;51617;48.158;16.464;2023-03-12T06:39:11;3.20;79.80
65044;DHT22;51617;48.158;16.464;2023-03-12T06:41:37;3.30;79.40
65044;DHT22;51617;48.158;16.464;2023-03-12T06:44:03;3.40;79.00
65044;DHT22;51617;48.158;16.464;2023-03-12T06:46:30;3.40;78.50
65044;DHT22;51617;48.158;16.464;2023-03-12T06:48:56;3.50;78.40
65044;DHT22;51617;48.158;16.464;2023-03-12T06:51:22;3.50;78.20
65044;DHT22;51617;48.158;16.464;2023-03-12T06:53:48;3.60;78.10
65044;DHT22;51617;48.158;16.464;2023-03-12T06:56:13;3.80;77.80
65044;DHT22;51617;48.158;16.464;2023-03-12T06:58:39;3.90;77.10
65044;DHT22;51617;48.158;16.464;2023-03-12T07:01:05;4.00;76.80
65044;DHT22;51617;48.158;16.464;2023-03-12T07:03:31;4.00;76.80
65044;DHT22;51617;48.158;16.464;2023-03-12T07:05:58;4.20;76.50
65044;DHT22;51617;48.158;16.464;2023-03-12T07:08:24;4.30;76.00
65044;DHT22;51617;48.158;16.464;2023-03-12T07:10:50;4.50;75.30
65044;DHT22;51617;48.158;16.464;2023-03-12T07:13:16;4.50;75.00
65044;DHT22;51617;48.158;16.464;2023-03-12T07:15:42;4.60;74.60
65044;DHT22;51617;48.158;16.464;2023-03-12T07:18:10;4.70;73.80
65044;DHT22;51617;48.158;16.464;2023-03-12T07:20:38;4.90;73.50
65044;DHT22;51617;48.158;16.464;2023-03-12T07:23:04;4.90;73.00
65044;DHT22;51617;48.158;16.464;2023-03-12T07:25:30;5.00;72.60
65044;DHT22;51617;48.158;16.464;2023-03-12T07:27:55;5.00;72.40
65044;DHT22;51617;48.158;16.464;2023-03-12T07:30:21;5.10;72.50
65044;DHT22;51617;48.158;16.464;2023-03-12T07:32:47;5.20;72.30
65044;DHT22;51617;48.158;16.464;2023-03-12T07:35:13;5.20;72.10
65044;DHT22;51617;48.158;16.464;2023-03-12T07:37:38;5.30;71.80
65044;DHT22;51617;48.158;16.464;2023-03-12T07:40:04;5.30;71.80
65044;DHT22;51617;48.158;16.464;2023-03-12T07:42:32;5.40;71.60
65044;DHT22;51617;48.158;16.464;2023-03-12T07:44:58;5.50;70.80
65044;DHT22;51617;48.158;16.464;2023-03-12T07:47:24;5.60;70.80
65044;DHT22;51617;48.158;16.464;2023-03-12T07:49:50;5.70;70.60
65044;DHT22;51617;48.158;16.464;2023-03-12T07:52:16;5.80;70.20
65044;DHT22;51617;48.158;16.464;2023-03-12T07:54:42;5.90;69.90
65044;DHT22;51617;48.158;16.464;2023-03-12T07:57:08;6.00;69.90
65044;DHT22;51617;48.158;16.464;2023-03-12T07:59:34;6.00;69.20
65044;DHT22;51617;48.158;16.464;2023-03-12T08:01:59;6.10;69.60
65044;DHT22;51617;48.158;16.464;2023-03-12T08:04:25;6.20;69.00
65044;DHT22;51617;48.158;16.464;2023-03-12T08:06:51;6.20;68.40
65044;DHT22;51617;48.158;16.464;2023-03-12T08:09:16;6.30;68.10
65044;DHT22;51617;48.158;16.464;2023-03-12T08:11:42;6.30;66.80
65044;DHT22;51617;48.158;16.464;2023-03-12T08:14:08;6.20;66.50
65044;DHT22;51617;48.158;16.464;2023-03-12T08:16:33;6.30;66.30
65044;DHT22;51617;48.158;16.464;2023-03-12T08:18:59;6.30;66.50
65044;DHT22;51617;48.158;16.464;2023-03-12T08:21:25;6.40;66.90
65044;DHT22;51617;48.158;16.464;2023-03-12T08:23:50;6.50;66.90
65044;DHT22;51617;48.158;16.464;2023-03-12T08:26:16;6.50;66.60
65044;DHT22;51617;48.158;16.464;2023-03-12T08:28:42;6.50;66.20
65044;DHT22;51617;48.158;16.464;2023-03-12T08:31:07;6.50;65.90
65044;DHT22;51617;48.158;16.464;2023-03-12T08:33:34;6.50;66.00
65044;DHT22;51617;48.158;16.464;2023-03-12T08:36:00;6.60;66.10
65044;DHT22;51617;48.158;16.464;2023-03-12T08:38:25;6.70;65.40
65044;DHT22;51617;48.158;16.464;2023-03-12T08:40:59;6.80;64.80
65044;DHT22;51617;48.158;16.464;2023-03-12T08:43:26;6.80;64.70
65044;DHT22;51617;48.158;16.464;2023-03-12T08:45:56;6.90;65.20
65044;DHT22;51617;48.158;16.464;2023-03-12T08:48:22;7.00;64.40
65044;DHT22;51617;48.158;16.464;2023-03-12T08:50:47;7.10;64.10
65044;DHT22;51617;48.158;16.464;2023-03-12T08:53:13;7.20;63.60
65044;DHT22;51617;48.158;16.464;2023-03-12T08:55:39;7.20;63.40
65044;DHT22;51617;48.158;16.464;2023-03-12T08:58:05;7.10;63.30
65044;DHT22;51617;48.158;16.464;2023-03-12T09:00:31;7.10;63.70
65044;DHT22;51617;48.158;16.464;2023-03-12T09:02:56;7.10;63.70
65044;DHT22;51617;48.158;16.464;2023-03-12T09:05:24;7.20;63.20
65044;DHT22;51617;48.158;16.464;2023-03-12T09:07:49;7.20;63.40
65044;DHT22;51617;48.158;16.464;2023-03-12T09:10:15;7.10;62.80
65044;DHT22;51617;48.158;16.464;2023-03-12T09:12:41;7.10;63.30
65044;DHT22;51617;48.158;16.464;2023-03-12T09:15:07;7.30;63.10
65044;DHT22;51617;48.158;16.464;2023-03-12T09:17:33;7.30;62.50
65044;DHT22;51617;48.158;16.464;2023-03-12T09:19:59;7.40;62.60
65044;DHT22;51617;48.158;16.464;2023-03-12T09:22:25;7.30;62.50
65044;DHT22;51617;48.158;16.464;2023-03-12T09:24:51;7.40;62.40
65044;DHT22;51617;48.158;16.464;2023-03-12T09:27:16;7.50;62.00
65044;DHT22;51617;48.158;16.464;2023-03-12T09:29:42;7.50;61.80
65044;DHT22;51617;48.158;16.464;2023-03-12T09:32:08;7.60;61.70
65044;DHT22;51617;48.158;16.464;2023-03-12T09:34:34;7.50;61.50
65044;DHT22;51617;48.158;16.464;2023-03-12T09:36:59;7.60;61.20
65044;DHT22;51617;48.158;16.464;2023-03-12T09:39:25;7.60;61.90
65044;DHT22;51617;48.158;16.464;2023-03-12T09:41:51;7.60;61.40
65044;DHT22;51617;48.158;16.464;2023-03-12T09:44:35;7.70;61.60
65044;DHT22;51617;48.158;16.464;2023-03-12T09:47:08;7.90;61.20
65044;DHT22;51617;48.158;16.464;2023-03-12T09:49:48;7.90;60.00
65044;DHT22;51617;48.158;16.464;2023-03-12T09:55:15;7.90;60.40
65044;DHT22;51617;48.158;16.464;2023-03-12T09:57:46;8.00;60.00
65044;DHT22;51617;48.158;16.464;2023-03-12T10:00:33;8.00;59.90
65044;DHT22;51617;48.158;16.464;2023-03-12T10:03:39;8.10;59.70
65044;DHT22;51617;48.158;16.464;2023-03-12T10:06:20;8.10;59.60
65044;DHT22;51617;48.158;16.464;2023-03-12T10:09:18;8.20;59.40
65044;DHT22;51617;48.158;16.464;2023-03-12T10:25:38;8.50;59.00
65044;DHT22;51617;48.158;16.464;2023-03-12T10:30:58;8.60;57.90
65044;DHT22;51617;48.158;16.464;2023-03-12T10:33:38;8.70;56.70
65044;DHT22;51617;48.158;16.464;2023-03-12T10:36:15;8.80;56.00
65044;DHT22;51617;48.158;16.464;2023-03-12T10:38:42;8.80;56.80
65044;DHT22;51617;48.158;16.464;2023-03-12T10:41:15;8.80;57.10
65044;DHT22;51617;48.158;16.464;2023-03-12T10:43:41;9.00;57.50
65044;DHT22;51617;48.158;16.464;2023-03-12T10:48:39;9.10;57.70
65044;DHT22;51617;48.158;16.464;2023-03-12T10:51:07;9.30;57.70
65044;DHT22;51617;48.158;16.464;2023-03-12T10:58:48;9.80;55.10
65044;DHT22;51617;48.158;16.464;2023-03-12T11:01:27;9.70;54.40
65044;DHT22;51617;48.158;16.464;2023-03-12T11:04:16;9.60;54.20
65044;DHT22;51617;48.158;16.464;2023-03-12T11:06:43;9.50;54.40
65044;DHT22;51617;48.158;16.464;2023-03-12T11:09:27;9.60;54.60
65044;DHT22;51617;48.158;16.464;2023-03-12T11:11:52;9.60;54.50
65044;DHT22;51617;48.158;16.464;2023-03-12T11:14:23;9.70;55.20
65044;DHT22;51617;48.158;16.464;2023-03-12T11:16:51;9.80;54.40
65044;DHT22;51617;48.158;16.464;2023-03-12T11:19:32;9.80;55.00
65044;DHT22;51617;48.158;16.464;2023-03-12T11:22:04;9.90;55.10
65044;DHT22;51617;48.158;16.464;2023-03-12T11:24:30;10.00;55.50
65044;DHT22;51617;48.158;16.464;2023-03-12T11:27:41;10.10;56.50
65044;DHT22;51617;48.158;16.464;2023-03-12T11:30:15;10.20;56.20
65044;DHT22;51617;48.158;16.464;2023-03-12T11:32:44;10.10;55.00
65044;DHT22;51617;48.158;16.464;2023-03-12T11:35:12;10.00;54.90
65044;DHT22;51617;48.158;16.464;2023-03-12T11:53:36;10.30;52.90
65044;DHT22;51617;48.158;16.464;2023-03-12T11:59:01;10.20;53.50
65044;DHT22;51617;48.158;16.464;2023-03-12T12:01:42;10.20;53.40
65044;DHT22;51617;48.158;16.464;2023-03-12T12:09:43;11.10;53.20
65044;DHT22;51617;48.158;16.464;2023-03-12T12:31:29;11.50;50.80
65044;DHT22;51617;48.158;16.464;2023-03-12T12:36:45;11.50;50.60
65044;DHT22;51617;48.158;16.464;2023-03-12T12:39:34;11.60;51.00
65044;DHT22;51617;48.158;16.464;2023-03-12T12:42:02;11.50;51.00
65044;DHT22;51617;48.158;16.464;2023-03-12T12:44:48;11.30;52.00
65044;DHT22;51617;48.158;16.464;2023-03-12T12:47:27;11.40;50.90
65044;DHT22;51617;48.158;16.464;2023-03-12T12:49:56;11.50;51.10
65044;DHT22;51617;48.158;16.464;2023-03-12T12:52:23;11.70;50.30
65044;DHT22;51617;48.158;16.464;2023-03-12T12:57:44;11.90;49.60
65044;DHT22;51617;48.158;16.464;2023-03-12T13:00:18;12.00;50.00
65044;DHT22;51617;48.158;16.464;2023-03-12T13:02:46;12.10;48.40
65044;DHT22;51617;48.158;16.464;2023-03-12T13:05:25;12.00;48.80
65044;DHT22;51617;48.158;16.464;2023-03-12T13:07:52;12.20;48.70
65044;DHT22;51617;48.158;16.464;2023-03-12T13:20:21;11.90;48.70
65044;DHT22;51617;48.158;16.464;2023-03-12T13:23:05;12.00;49.30
65044;DHT22;51617;48.158;16.464;2023-03-12T13:33:53;12.30;48.80
65044;DHT22;51617;48.158;16.464;2023-03-12T13:36:23;12.50;50.30
65044;DHT22;51617;48.158;16.464;2023-03-12T13:38:58;12.60;49.10
65044;DHT22;51617;48.158;16.464;2023-03-12T13:41:39;12.50;50.20
65044;DHT22;51617;48.158;16.464;2023-03-12T13:49:26;12.60;49.00
65044;DHT22;51617;48.158;16.464;2023-03-12T13:52:00;12.50;49.30
65044;DHT22;51617;48.158;16.464;2023-03-12T13:54:30;12.50;49.00
65044;DHT22;51617;48.158;16.464;2023-03-12T13:57:02;12.40;49.90
65044;DHT22;51617;48.158;16.464;2023-03-12T13:59:29;12.50;50.40
65044;DHT22;51617;48.158;16.464;2023-03-12T14:02:03;12.40;50.40
65044;DHT22;51617;48.158;16.464;2023-03-12T14:04:35;12.30;50.60
65044;DHT22;51617;48.158;16.464;2023-03-12T14:10:14;12.10;51.30
65044;DHT22;51617;48.158;16.464;2023-03-12T14:16:05;12.00;51.40
65044;DHT22;51617;48.158;16.464;2023-03-12T14:18:35;12.00;51.70
65044;DHT22;51617;48.158;16.464;2023-03-12T14:21:07;12.00;51.50
65044;DHT22;51617;48.158;16.464;2023-03-12T14:23:48;12.00;51.50
65044;DHT22;51617;48.158;16.464;2023-03-12T14:26:45;11.90;51.80
65044;DHT22;51617;48.158;16.464;2023-03-12T14:32:02;11.80;51.40
65044;DHT22;51617;48.158;16.464;2023-03-12T14:34:32;11.70;51.40
65044;DHT22;51617;48.158;16.464;2023-03-12T14:37:01;11.70;51.50
65044;DHT22;51617;48.158;16.464;2023-03-12T14:39:32;11.60;51.40
65044;DHT22;51617;48.158;16.464;2023-03-12T14:42:04;11.70;51.90
65044;DHT22;51617;48.158;16.464;2023-03-12T14:44:32;11.70;51.80
65044;DHT22;51617;48.158;16.464;2023-03-12T14:47:00;11.70;51.50
65044;DHT22;51617;48.158;16.464;2023-03-12T14:49:27;11.70;51.60
65044;DHT22;51617;48.158;16.464;2023-03-12T14:51:54;11.70;51.60
65044;DHT22;51617;48.158;16.464;2023-03-12T14:54:24;11.70;51.60
65044;DHT22;51617;48.158;16.464;2023-03-12T14:56:50;11.70;51.60
65044;DHT22;51617;48.158;16.464;2023-03-12T14:59:32;11.70;52.20
65044;DHT22;51617;48.158;16.464;2023-03-12T15:02:15;11.70;52.00
65044;DHT22;51617;48.158;16.464;2023-03-12T15:04:42;11.70;52.10
65044;DHT22;51617;48.158;16.464;2023-03-12T15:07:14;11.60;52.30
65044;DHT22;51617;48.158;16.464;2023-03-12T15:09:44;11.50;52.30
65044;DHT22;51617;48.158;16.464;2023-03-12T15:12:22;11.50;52.20
65044;DHT22;51617;48.158;16.464;2023-03-12T15:14:52;11.50;52.20
65044;DHT22;51617;48.158;16.464;2023-03-12T15:17:21;11.50;52.40
65044;DHT22;51617;48.158;16.464;2023-03-12T15:19:48;11.50;52.80
65044;DHT22;51617;48.158;16.464;2023-03-12T15:22:18;11.40;52.50
65044;DHT22;51617;48.158;16.464;2023-03-12T15:24:46;11.40;52.40
65044;DHT22;51617;48.158;16.464;2023-03-12T15:29:45;11.30;52.90
65044;DHT22;51617;48.158;16.464;2023-03-12T15:32:16;11.30;52.80
65044;DHT22;51617;48.158;16.464;2023-03-12T15:34:42;11.30;52.90
65044;DHT22;51617;48.158;16.464;2023-03-12T15:39:52;11.30;53.00
65044;DHT22;51617;48.158;16.464;2023-03-12T15:42:21;11.30;52.80
65044;DHT22;51617;48.158;16.464;2023-03-12T15:44:50;11.30;52.90
65044;DHT22;51617;48.158;16.464;2023-03-12T15:47:28;11.30;53.00
65044;DHT22;51617;48.158;16.464;2023-03-12T15:50:06;11.20;52.70
65044;DHT22;51617;48.158;16.464;2023-03-12T15:52:35;11.20;53.20
65044;DHT22;51617;48.158;16.464;2023-03-12T16:02:56;11.10;54.20
65044;DHT22;51617;48.158;16.464;2023-03-12T16:05:29;11.10;54.40
65044;DHT22;51617;48.158;16.464;2023-03-12T16:07:56;11.10;54.00
65044;DHT22;51617;48.158;16.464;2023-03-12T16:10:25;11.10;54.00
65044;DHT22;51617;48.158;16.464;2023-03-12T16:12:58;11.10;53.90
65044;DHT22;51617;48.158;16.464;2023-03-12T16:15:36;11.10;53.90
65044;DHT22;51617;48.158;16.464;2023-03-12T16:18:03;11.10;53.80
65044;DHT22;51617;48.158;16.464;2023-03-12T16:20:29;11.10;53.80
65044;DHT22;51617;48.158;16.464;2023-03-12T16:22:56;11.10;53.70
65044;DHT22;51617;48.158;16.464;2023-03-12T16:25:23;11.10;53.70
65044;DHT22;51617;48.158;16.464;2023-03-12T16:27:53;11.10;53.70
65044;DHT22;51617;48.158;16.464;2023-03-12T16:30:29;11.00;53.70
65044;DHT22;51617;48.158;16.464;2023-03-12T16:32:57;11.10;54.10
65044;DHT22;51617;48.158;16.464;2023-03-12T16:35:24;11.00;54.30
65044;DHT22;51617;48.158;16.464;2023-03-12T16:37:53;10.90;54.70
65044;DHT22;51617;48.158;16.464;2023-03-12T16:40:19;10.80;55.00
65044;DHT22;51617;48.158;16.464;2023-03-12T16:42:49;10.80;55.10
65044;DHT22;51617;48.158;16.464;2023-03-12T16:45:17;10.80;55.50
65044;DHT22;51617;48.158;16.464;2023-03-12T16:47:44;10.80;55.70
65044;DHT22;51617;48.158;16.464;2023-03-12T16:50:18;10.80;56.00
65044;DHT22;51617;48.158;16.464;2023-03-12T16:52:44;10.70;56.20
65044;DHT22;51617;48.158;16.464;2023-03-12T16:55:24;10.70;56.30
65044;DHT22;51617;48.158;16.464;2023-03-12T16:57:53;10.70;56.50
65044;DHT22;51617;48.158;16.464;2023-03-12T17:00:24;10.70;56.80
65044;DHT22;51617;48.158;16.464;2023-03-12T17:02:52;10.70;56.80
65044;DHT22;51617;48.158;16.464;2023-03-12T17:05:26;10.70;56.70
65044;DHT22;51617;48.158;16.464;2023-03-12T17:07:52;10.70;56.70
65044;DHT22;51617;48.158;16.464;2023-03-12T17:10:18;10.70;56.80
65044;DHT22;51617;48.158;16.464;2023-03-12T17:12:44;10.70;56.70
65044;DHT22;51617;48.158;16.464;2023-03-12T17:15:19;10.70;56.90
65044;DHT22;51617;48.158;16.464;2023-03-12T17:17:49;10.70;57.10
65044;DHT22;51617;48.158;16.464;2023-03-12T17:20:18;10.60;57.00
65044;DHT22;51617;48.158;16.464;2023-03-12T17:22:44;10.60;56.80
65044;DHT22;51617;48.158;16.464;2023-03-12T17:25:37;10.70;56.80
65044;DHT22;51617;48.158;16.464;2023-03-12T17:28:04;10.70;56.40
65044;DHT22;51617;48.158;16.464;2023-03-12T17:30:30;10.70;56.50
65044;DHT22;51617;48.158;16.464;2023-03-12T17:33:12;10.70;56.50
65044;DHT22;51617;48.158;16.464;2023-03-12T17:35:38;10.80;56.90
65044;DHT22;51617;48.158;16.464;2023-03-12T17:38:05;10.70;57.20
65044;DHT22;51617;48.158;16.464;2023-03-12T17:40:31;10.70;57.30
65044;DHT22;51617;48.158;16.464;2023-03-12T17:42:57;10.70;57.20
65044;DHT22;51617;48.158;16.464;2023-03-12T17:45:24;10.70;57.30
65044;DHT22;51617;48.158;16.464;2023-03-12T17:47:50;10.70;57.30